KMVL/MVL METAR and TAF weather

Enter ICAO airport designator
Station Type Date Time Source
KMVL METAR 2019/08/19 06:54 UTC NOAA

KMVL 190654Z AUTO 00000KT 9SM CLR 17/17 A2993 RMK AO2 SLP132 T01720167


Station Type Date Time Source
KMVL Decoded METAR 2019/08/19 06:54 UTC NOAA

Station name not available
Aug 19, 2019 - 02:54 AM EDT / 2019.08.19 0654 UTC
Wind: Calm:0
Visibility: 9 mile(s):0
Sky conditions: clear
Temperature: 63.0 F (17.2 C)
Dew Point: 62.1 F (16.7 C)
Relative Humidity: 96%
Pressure (altimeter): 29.93 in. Hg (1013 hPa)
ob: KMVL 190654Z AUTO 00000KT 9SM CLR 17/17 A2993 RMK AO2 SLP132 T01720167
cycle: 7

Station Type Date Time Source
KMVL TAF UTC NOAA

Error!

Example: see airport list